createdAt,value
2022-09-22T00:01:24.872Z,13.76
2022-09-22T00:03:58.276Z,13.73
2022-09-22T00:06:27.871Z,13.68
2022-09-22T00:08:57.355Z,13.59
2022-09-22T00:11:28.951Z,13.51
2022-09-22T00:14:02.133Z,13.45
2022-09-22T00:16:32.439Z,13.39
2022-09-22T00:18:59.050Z,13.35
2022-09-22T00:21:30.935Z,13.31
2022-09-22T00:24:03.501Z,13.30
2022-09-22T00:26:31.233Z,13.30
2022-09-22T00:28:58.148Z,13.26
2022-09-22T00:31:25.646Z,13.22
2022-09-22T00:33:54.631Z,13.19
2022-09-22T00:36:25.799Z,13.17
2022-09-22T00:38:54.074Z,13.19
2022-09-22T00:41:25.126Z,13.20
2022-09-22T00:44:28.989Z,13.20
2022-09-22T00:47:07.754Z,13.21
2022-09-22T00:49:47.030Z,13.21
2022-09-22T00:52:18.992Z,13.20
2022-09-22T00:54:48.538Z,13.21
2022-09-22T00:57:19.496Z,13.22
2022-09-22T00:59:50.459Z,13.20
2022-09-22T01:02:17.100Z,13.16
2022-09-22T01:04:50.886Z,13.12
2022-09-22T01:07:19.966Z,13.08
2022-09-22T01:09:46.518Z,13.04
2022-09-22T01:12:13.130Z,13.06
2022-09-22T01:15:09.675Z,13.03
2022-09-22T01:17:56.083Z,13.02
2022-09-22T01:20:23.165Z,13.02
2022-09-22T01:23:20.711Z,13.02
2022-09-22T01:26:08.989Z,13.02
2022-09-22T01:28:56.395Z,12.99
2022-09-22T01:31:41.178Z,12.93
2022-09-22T01:34:32.778Z,12.91
2022-09-22T01:37:11.589Z,12.90
2022-09-22T01:39:44.821Z,12.90
2022-09-22T01:42:37.287Z,12.88
2022-09-22T01:45:38.962Z,12.87
2022-09-22T01:48:13.659Z,12.87
2022-09-22T01:50:45.033Z,12.84
2022-09-22T01:53:14.997Z,12.82
2022-09-22T01:55:47.552Z,12.80
2022-09-22T01:58:21.557Z,12.79
2022-09-22T02:00:55.953Z,12.77
2022-09-22T02:04:01.702Z,12.70
2022-09-22T02:06:41.370Z,12.67
2022-09-22T02:09:12.394Z,12.68
2022-09-22T02:11:39.577Z,12.70
2022-09-22T02:14:07.246Z,12.70
2022-09-22T02:16:34.826Z,12.71
2022-09-22T02:19:13.333Z,12.72
2022-09-22T02:21:43.727Z,12.73
2022-09-22T02:24:36.970Z,12.70
2022-09-22T02:27:08.174Z,12.71
2022-09-22T02:29:39.490Z,12.70
2022-09-22T02:32:11.410Z,12.70
2022-09-22T02:34:39.456Z,12.70
2022-09-22T02:37:20.892Z,12.66
2022-09-22T02:40:07.191Z,12.60
2022-09-22T02:42:41.681Z,12.61
2022-09-22T02:45:25.497Z,12.62
2022-09-22T02:47:59.843Z,12.62
2022-09-22T02:50:28.657Z,12.63
2022-09-22T02:53:03.282Z,12.64
2022-09-22T02:55:31.727Z,12.62
2022-09-22T02:57:58.296Z,12.61
2022-09-22T03:00:24.965Z,12.60
2022-09-22T03:02:51.453Z,12.59
2022-09-22T03:05:18.770Z,12.56
2022-09-22T03:07:45.438Z,12.55
2022-09-22T03:10:12.013Z,12.51
2022-09-22T03:13:02.563Z,12.47
2022-09-22T03:15:29.522Z,12.41
2022-09-22T03:17:56.069Z,12.36
2022-09-22T03:20:22.825Z,12.33
2022-09-22T03:22:49.300Z,12.28
2022-09-22T03:25:15.862Z,12.26
2022-09-22T03:27:42.391Z,12.25
2022-09-22T03:30:09.647Z,12.25
2022-09-22T03:32:37.505Z,12.23
2022-09-22T03:35:06.031Z,12.19
2022-09-22T03:37:34.012Z,12.13
2022-09-22T03:40:00.925Z,12.09
2022-09-22T03:42:27.523Z,12.03
2022-09-22T03:44:55.636Z,11.98
2022-09-22T03:47:22.114Z,11.96
2022-09-22T03:49:48.964Z,11.93
2022-09-22T03:52:15.489Z,11.92
2022-09-22T03:54:42.012Z,11.93
2022-09-22T03:57:08.509Z,11.93
2022-09-22T03:59:35.083Z,11.95
2022-09-22T04:02:02.714Z,11.96
2022-09-22T04:04:29.700Z,11.96
2022-09-22T04:06:56.224Z,11.96
2022-09-22T04:09:22.903Z,11.94
2022-09-22T04:11:49.559Z,11.92
2022-09-22T04:14:19.458Z,11.92
2022-09-22T04:16:46.178Z,11.90
2022-09-22T04:19:13.560Z,11.90
2022-09-22T04:21:40.039Z,11.91
2022-09-22T04:24:11.503Z,11.91
2022-09-22T04:26:44.430Z,11.94
2022-09-22T04:29:23.051Z,11.98
2022-09-22T04:31:49.784Z,12.01
2022-09-22T04:34:21.138Z,12.03
2022-09-22T04:36:47.736Z,12.05
2022-09-22T04:39:14.223Z,12.06
2022-09-22T04:41:40.717Z,12.07
2022-09-22T04:44:07.610Z,12.07
2022-09-22T04:46:34.197Z,12.04
2022-09-22T04:49:00.940Z,12.02
2022-09-22T04:51:27.532Z,12.00
2022-09-22T04:53:55.568Z,11.97
2022-09-22T04:56:22.790Z,11.96
2022-09-22T04:58:49.278Z,11.96
2022-09-22T05:01:15.844Z,11.96
2022-09-22T05:03:46.441Z,11.96
2022-09-22T05:06:12.951Z,11.94
2022-09-22T05:08:39.503Z,11.91
2022-09-22T05:11:09.606Z,11.88
2022-09-22T05:13:41.099Z,11.83
2022-09-22T05:16:08.579Z,11.77
2022-09-22T05:18:35.476Z,11.73
2022-09-22T05:21:02.141Z,11.70
2022-09-22T05:23:36.152Z,11.66
2022-09-22T05:26:02.806Z,11.65
2022-09-22T05:28:29.474Z,11.62
2022-09-22T05:30:55.984Z,11.62
2022-09-22T05:33:22.455Z,11.63
2022-09-22T05:35:48.955Z,11.64
2022-09-22T05:38:15.478Z,11.66
2022-09-22T05:40:42.178Z,11.67
2022-09-22T05:43:08.806Z,11.69
2022-09-22T05:45:35.564Z,11.73
2022-09-22T05:48:02.277Z,11.77
2022-09-22T05:50:28.964Z,11.78
2022-09-22T05:53:06.589Z,11.76
2022-09-22T05:55:33.783Z,11.77
2022-09-22T05:58:00.669Z,11.79
2022-09-22T06:00:28.450Z,11.81
2022-09-22T06:02:55.289Z,11.83
2022-09-22T06:05:22.741Z,11.86
2022-09-22T06:07:58.118Z,11.90
2022-09-22T06:10:24.646Z,11.93
2022-09-22T06:12:51.381Z,11.96
2022-09-22T06:15:19.781Z,11.98
2022-09-22T06:17:46.247Z,12.03
2022-09-22T06:20:12.916Z,12.05
2022-09-22T06:22:39.710Z,12.08
2022-09-22T06:25:09.079Z,12.10
2022-09-22T06:27:35.599Z,12.13
2022-09-22T06:30:02.195Z,12.17
2022-09-22T06:32:28.683Z,12.20
2022-09-22T06:34:56.028Z,12.23
2022-09-22T06:37:23.328Z,12.25
2022-09-22T06:39:49.801Z,12.27
2022-09-22T06:42:17.247Z,12.28
2022-09-22T06:44:45.394Z,12.30
2022-09-22T06:47:12.411Z,12.33
2022-09-22T06:49:38.868Z,12.34
2022-09-22T06:52:05.950Z,12.38
2022-09-22T06:54:35.585Z,12.43
2022-09-22T06:57:02.459Z,12.52
2022-09-22T06:59:30.170Z,12.62
2022-09-22T07:01:56.915Z,12.80
2022-09-22T07:04:25.452Z,12.99
2022-09-22T07:06:51.919Z,13.22
2022-09-22T07:09:18.476Z,13.44
2022-09-22T07:11:45.121Z,13.66
2022-09-22T07:14:12.574Z,13.89
2022-09-22T07:16:39.899Z,14.10
2022-09-22T07:19:06.589Z,14.34
2022-09-22T07:21:36.423Z,14.57
2022-09-22T07:24:08.056Z,14.81
2022-09-22T07:26:37.890Z,15.03
2022-09-22T07:29:07.851Z,15.23
2022-09-22T07:31:34.931Z,15.42
2022-09-22T07:34:03.284Z,15.64
2022-09-22T07:36:32.542Z,15.83
2022-09-22T07:39:07.509Z,16.03
2022-09-22T07:41:52.970Z,16.22
2022-09-22T07:44:42.295Z,16.43
2022-09-22T07:47:10.903Z,16.68
2022-09-22T07:49:37.408Z,16.86
2022-09-22T07:52:04.353Z,17.02
2022-09-22T07:54:36.854Z,17.16
2022-09-22T07:57:06.610Z,17.33
2022-09-22T07:59:33.737Z,17.48
2022-09-22T08:02:01.184Z,17.61
2022-09-22T08:04:31.925Z,17.77
2022-09-22T08:06:58.632Z,17.96
2022-09-22T08:09:26.374Z,18.12
2022-09-22T08:11:53.659Z,18.29
2022-09-22T08:14:23.485Z,18.45
2022-09-22T08:16:51.625Z,18.63
2022-09-22T08:19:18.347Z,18.80
2022-09-22T08:21:49.204Z,18.96
2022-09-22T08:24:22.191Z,19.13
2022-09-22T08:26:53.344Z,19.24
2022-09-22T08:29:21.201Z,19.31
2022-09-22T08:31:49.254Z,19.37
2022-09-22T08:34:18.124Z,19.44
2022-09-22T08:36:46.467Z,19.56
2022-09-22T08:39:13.729Z,19.72
2022-09-22T08:42:08.439Z,19.81
2022-09-22T08:44:39.303Z,19.87
2022-09-22T08:47:05.849Z,19.92
2022-09-22T08:50:00.458Z,20.01
2022-09-22T08:52:48.766Z,20.13
2022-09-22T08:55:23.122Z,20.19
2022-09-22T08:58:03.095Z,20.25
2022-09-22T09:00:49.175Z,20.29
2022-09-22T09:03:22.835Z,20.39
2022-09-22T09:06:00.298Z,20.51
2022-09-22T09:08:54.831Z,20.64
2022-09-22T09:11:47.253Z,20.76
2022-09-22T09:14:19.639Z,20.88
2022-09-22T09:16:58.670Z,20.99
2022-09-22T09:19:43.834Z,21.10
2022-09-22T09:22:24.844Z,21.22
2022-09-22T09:25:24.405Z,21.31
2022-09-22T09:27:57.117Z,21.43
2022-09-22T09:30:24.258Z,21.54
2022-09-22T09:33:01.783Z,21.66
2022-09-22T09:35:58.627Z,21.78
2022-09-22T09:38:28.570Z,21.89
2022-09-22T09:41:10.841Z,21.97
2022-09-22T09:43:45.504Z,22.06
2022-09-22T09:46:24.856Z,22.13
2022-09-22T09:49:05.997Z,22.24
2022-09-22T09:51:41.258Z,22.32
2022-09-22T09:54:16.670Z,22.38
2022-09-22T09:57:07.965Z,22.47
2022-09-22T10:00:05.209Z,22.57
2022-09-22T10:03:02.789Z,22.73
2022-09-22T10:05:31.109Z,22.89
2022-09-22T10:08:01.311Z,22.98
2022-09-22T10:10:33.795Z,23.11
2022-09-22T10:13:00.222Z,23.21
2022-09-22T10:15:31.398Z,23.26
2022-09-22T10:17:58.460Z,23.32
2022-09-22T10:20:28.535Z,23.38
2022-09-22T10:22:56.416Z,23.51
2022-09-22T10:25:31.940Z,23.60
2022-09-22T10:28:05.106Z,23.71
2022-09-22T10:30:33.168Z,23.85
2022-09-22T10:33:08.774Z,23.96
2022-09-22T10:35:36.256Z,23.99
2022-09-22T10:38:23.991Z,24.09
2022-09-22T10:40:56.934Z,24.20
2022-09-22T10:44:03.118Z,24.31
2022-09-22T10:46:50.589Z,24.44
2022-09-22T10:49:16.925Z,24.45
2022-09-22T10:52:04.768Z,24.49
2022-09-22T10:54:56.290Z,24.56
2022-09-22T10:57:32.860Z,24.63
2022-09-22T11:00:14.980Z,24.67
2022-09-22T11:02:58.033Z,24.76
2022-09-22T11:06:01.531Z,24.87
2022-09-22T11:09:12.973Z,25.01
2022-09-22T11:12:15.177Z,25.11
2022-09-22T11:14:59.079Z,25.21
2022-09-22T11:17:45.459Z,25.30
2022-09-22T11:20:12.275Z,25.38
2022-09-22T11:22:39.258Z,25.53
2022-09-22T11:25:39.359Z,25.69
2022-09-22T11:28:35.437Z,25.79
2022-09-22T11:31:02.165Z,25.85
2022-09-22T11:34:04.032Z,25.88
2022-09-22T11:36:42.326Z,25.91
2022-09-22T11:39:20.394Z,25.88
2022-09-22T11:42:25.101Z,25.90
2022-09-22T11:45:00.691Z,25.82
2022-09-22T11:47:29.929Z,25.68
2022-09-22T11:50:04.897Z,25.58
2022-09-22T11:52:58.295Z,25.53
2022-09-22T11:55:52.422Z,25.52
2022-09-22T11:58:22.285Z,25.51
2022-09-22T12:00:57.649Z,25.50
2022-09-22T12:03:50.473Z,25.47
2022-09-22T12:06:26.185Z,25.42
2022-09-22T12:09:04.540Z,25.40
2022-09-22T12:11:35.822Z,25.39
2022-09-22T12:14:03.451Z,25.44
2022-09-22T12:16:47.742Z,25.48
2022-09-22T12:19:26.462Z,25.58
2022-09-22T12:22:00.497Z,25.70
2022-09-22T12:24:27.041Z,25.79
2022-09-22T12:26:53.814Z,25.74
2022-09-22T12:29:24.984Z,25.62
2022-09-22T12:31:55.521Z,25.57
2022-09-22T12:34:35.088Z,25.51
2022-09-22T12:37:30.219Z,25.48
2022-09-22T12:40:19.758Z,25.44
2022-09-22T12:42:51.815Z,25.45
2022-09-22T12:45:35.065Z,25.41
2022-09-22T12:48:17.862Z,25.26
2022-09-22T12:50:45.639Z,25.14
2022-09-22T12:53:43.774Z,25.13
2022-09-22T12:56:47.497Z,25.25
2022-09-22T12:59:35.508Z,25.47
2022-09-22T13:02:11.093Z,25.66
2022-09-22T13:04:38.338Z,25.82
2022-09-22T13:07:25.145Z,25.88
2022-09-22T13:10:23.820Z,26.03
2022-09-22T13:13:09.509Z,26.19
2022-09-22T13:15:51.090Z,26.27
2022-09-22T13:18:38.346Z,26.31
2022-09-22T13:21:13.823Z,26.37
2022-09-22T13:23:57.793Z,26.43
2022-09-22T13:26:33.430Z,26.44
2022-09-22T13:29:11.977Z,26.43
2022-09-22T13:31:48.335Z,26.50
2022-09-22T13:34:29.204Z,26.64
2022-09-22T13:36:59.876Z,26.63
2022-09-22T13:39:31.342Z,26.61
2022-09-22T13:42:04.513Z,26.58
2022-09-22T13:44:40.021Z,26.57
2022-09-22T13:47:17.058Z,26.56
2022-09-22T13:49:47.735Z,26.58
2022-09-22T13:52:19.269Z,26.57
2022-09-22T13:54:52.369Z,26.59
2022-09-22T13:57:23.886Z,26.59
2022-09-22T13:59:52.319Z,26.71
2022-09-22T14:02:29.357Z,26.70
2022-09-22T14:05:02.975Z,26.63
2022-09-22T14:07:34.227Z,26.58
2022-09-22T14:10:09.138Z,26.60
2022-09-22T14:12:36.007Z,26.64
2022-09-22T14:15:39.216Z,26.62
2022-09-22T14:18:15.657Z,26.65
2022-09-22T14:20:44.422Z,26.75
2022-09-22T14:23:28.106Z,26.75
2022-09-22T14:26:01.815Z,26.78
2022-09-22T14:28:35.166Z,26.78
2022-09-22T14:31:02.432Z,26.77
2022-09-22T14:33:49.043Z,26.72
2022-09-22T14:36:19.285Z,26.75
2022-09-22T14:38:58.044Z,26.74
2022-09-22T14:41:37.564Z,26.77
2022-09-22T14:44:37.811Z,26.70
2022-09-22T14:47:26.637Z,26.59
2022-09-22T14:50:12.199Z,26.59
2022-09-22T14:52:46.350Z,26.62
2022-09-22T14:55:39.027Z,26.66
2022-09-22T14:58:12.607Z,26.68
2022-09-22T15:01:09.956Z,26.62
2022-09-22T15:03:59.088Z,26.46
2022-09-22T15:06:37.406Z,26.39
2022-09-22T15:09:05.077Z,26.34
2022-09-22T15:11:56.373Z,26.23
2022-09-22T15:14:43.318Z,26.10
2022-09-22T15:17:53.313Z,25.97
2022-09-22T15:20:21.597Z,25.87
2022-09-22T15:22:48.967Z,25.79
2022-09-22T15:25:18.545Z,25.68
2022-09-22T15:27:45.089Z,25.57
2022-09-22T15:30:16.156Z,25.48
2022-09-22T15:32:46.408Z,25.38
2022-09-22T15:35:17.666Z,25.26
2022-09-22T15:37:50.056Z,25.12
2022-09-22T15:40:21.575Z,24.99
2022-09-22T15:43:11.322Z,24.88
2022-09-22T15:45:37.734Z,24.79
2022-09-22T15:48:04.658Z,24.73
2022-09-22T15:50:31.221Z,24.65
2022-09-22T15:52:57.923Z,24.58
2022-09-22T15:55:24.965Z,24.50
2022-09-22T15:57:55.225Z,24.40
2022-09-22T16:00:27.486Z,24.31
2022-09-22T16:02:54.632Z,24.26
2022-09-22T16:05:21.319Z,24.20
2022-09-22T16:07:52.933Z,24.14
2022-09-22T16:10:23.589Z,24.09
2022-09-22T16:12:50.528Z,24.01
2022-09-22T16:15:20.888Z,23.92
2022-09-22T16:17:47.438Z,23.87
2022-09-22T16:20:16.365Z,23.81
2022-09-22T16:22:45.362Z,23.74
2022-09-22T16:25:12.638Z,23.68
2022-09-22T16:27:39.214Z,23.60
2022-09-22T16:30:06.501Z,23.53
2022-09-22T16:32:36.118Z,23.47
2022-09-22T16:35:04.263Z,23.37
2022-09-22T16:37:30.801Z,23.29
2022-09-22T16:39:57.341Z,23.21
2022-09-22T16:42:24.097Z,23.09
2022-09-22T16:44:50.783Z,23.00
2022-09-22T16:47:22.800Z,22.90
2022-09-22T16:49:51.285Z,22.79
2022-09-22T16:52:21.127Z,22.69
2022-09-22T16:54:49.100Z,22.60
2022-09-22T16:57:15.612Z,22.50
2022-09-22T16:59:42.101Z,22.40
2022-09-22T17:02:10.421Z,22.32
2022-09-22T17:04:41.585Z,22.22
2022-09-22T17:07:08.101Z,22.12
2022-09-22T17:09:34.658Z,22.03
2022-09-22T17:12:08.224Z,21.96
2022-09-22T17:14:36.976Z,21.85
2022-09-22T17:17:07.402Z,21.74
2022-09-22T17:19:33.975Z,21.63
2022-09-22T17:22:00.458Z,21.52
2022-09-22T17:24:27.189Z,21.43
2022-09-22T17:26:56.388Z,21.33
2022-09-22T17:29:28.522Z,21.22
2022-09-22T17:32:02.540Z,21.13
2022-09-22T17:34:34.570Z,21.03
2022-09-22T17:37:02.973Z,20.93
2022-09-22T17:39:29.597Z,20.85
2022-09-22T17:41:56.507Z,20.75
2022-09-22T17:44:28.794Z,20.68
2022-09-22T17:47:14.596Z,20.58
2022-09-22T17:49:59.646Z,20.49
2022-09-22T17:52:29.212Z,20.41
2022-09-22T17:55:12.622Z,20.29
2022-09-22T17:57:41.704Z,20.19
2022-09-22T18:00:12.392Z,20.10
2022-09-22T18:02:39.278Z,20.04
2022-09-22T18:05:07.003Z,19.95
2022-09-22T18:07:40.287Z,19.89
2022-09-22T18:10:13.966Z,19.81
2022-09-22T18:12:41.257Z,19.75
2022-09-22T18:15:09.545Z,19.67
2022-09-22T18:17:43.063Z,19.60
2022-09-22T18:20:15.131Z,19.54
2022-09-22T18:22:47.779Z,19.46
2022-09-22T18:25:15.606Z,19.39
2022-09-22T18:27:42.266Z,19.33
2022-09-22T18:30:14.182Z,19.26
2022-09-22T18:32:42.349Z,19.18
2022-09-22T18:35:09.237Z,19.10
2022-09-22T18:37:35.780Z,19.04
2022-09-22T18:40:02.330Z,18.96
2022-09-22T18:42:31.130Z,18.90
2022-09-22T18:45:02.305Z,18.84
2022-09-22T18:47:28.789Z,18.77
2022-09-22T18:49:56.849Z,18.72
2022-09-22T18:52:24.806Z,18.67
2022-09-22T18:54:53.767Z,18.61
2022-09-22T18:57:28.323Z,18.57
2022-09-22T18:59:57.679Z,18.49
2022-09-22T19:02:24.769Z,18.41
2022-09-22T19:04:51.686Z,18.35
2022-09-22T19:07:41.347Z,18.30
2022-09-22T19:10:14.360Z,18.26
2022-09-22T19:12:41.456Z,18.21
2022-09-22T19:15:13.802Z,18.16
2022-09-22T19:17:45.092Z,18.16
2022-09-22T19:20:13.588Z,18.14
2022-09-22T19:22:40.404Z,18.13
2022-09-22T19:25:07.494Z,18.10
2022-09-22T19:27:34.747Z,18.09
2022-09-22T19:30:01.785Z,18.07
2022-09-22T19:32:28.378Z,18.04
2022-09-22T19:34:59.100Z,18.02
2022-09-22T19:37:27.772Z,18.01
2022-09-22T19:39:54.310Z,17.98
2022-09-22T19:42:21.126Z,17.97
2022-09-22T19:44:47.810Z,17.95
2022-09-22T19:47:14.325Z,17.92
2022-09-22T19:49:42.162Z,17.90
2022-09-22T19:52:09.293Z,17.85
2022-09-22T19:54:35.814Z,17.82
2022-09-22T19:57:02.435Z,17.79
2022-09-22T19:59:29.515Z,17.77
2022-09-22T20:01:56.082Z,17.72
2022-09-22T20:04:23.932Z,17.68
2022-09-22T20:06:50.429Z,17.64
2022-09-22T20:09:17.359Z,17.61
2022-09-22T20:11:49.534Z,17.58
2022-09-22T20:14:20.198Z,17.56
2022-09-22T20:16:56.949Z,17.52
2022-09-22T20:19:25.518Z,17.47
2022-09-22T20:21:54.506Z,17.45
2022-09-22T20:24:25.471Z,17.43
2022-09-22T20:26:52.658Z,17.41
2022-09-22T20:29:20.568Z,17.39
2022-09-22T20:31:47.056Z,17.36
2022-09-22T20:34:15.410Z,17.32
2022-09-22T20:36:43.239Z,17.28
2022-09-22T20:39:14.998Z,17.23
2022-09-22T20:41:42.484Z,17.20
2022-09-22T20:44:13.866Z,17.14
2022-09-22T20:46:42.142Z,17.07
2022-09-22T20:49:12.518Z,17.05
2022-09-22T20:51:39.245Z,17.04
2022-09-22T20:54:07.237Z,17.03
2022-09-22T20:56:34.121Z,17.01
2022-09-22T20:59:01.999Z,16.99
2022-09-22T21:01:28.563Z,16.97
2022-09-22T21:03:57.327Z,16.94
2022-09-22T21:06:24.535Z,16.90
2022-09-22T21:09:13.104Z,16.83
2022-09-22T21:11:39.766Z,16.76
2022-09-22T21:14:10.356Z,16.68
2022-09-22T21:16:38.229Z,16.61
2022-09-22T21:19:04.795Z,16.55
2022-09-22T21:21:33.500Z,16.50
2022-09-22T21:24:01.899Z,16.45
2022-09-22T21:26:29.867Z,16.42
2022-09-22T21:28:56.892Z,16.39
2022-09-22T21:31:23.467Z,16.37
2022-09-22T21:33:52.155Z,16.33
2022-09-22T21:36:22.508Z,16.30
2022-09-22T21:38:54.640Z,16.26
2022-09-22T21:41:23.261Z,16.22
2022-09-22T21:43:53.578Z,16.18
2022-09-22T21:46:22.576Z,16.14
2022-09-22T21:48:49.482Z,16.09
2022-09-22T21:51:22.015Z,16.06
2022-09-22T21:53:54.477Z,16.05
2022-09-22T21:56:23.284Z,16.04
2022-09-22T21:58:51.984Z,16.03
2022-09-22T22:01:21.195Z,16.02
2022-09-22T22:03:54.174Z,16.02
2022-09-22T22:06:39.982Z,16.00
2022-09-22T22:09:23.389Z,15.97
2022-09-22T22:11:56.237Z,15.96
2022-09-22T22:14:31.963Z,15.97
2022-09-22T22:16:58.465Z,15.97
2022-09-22T22:19:26.866Z,15.95
2022-09-22T22:21:54.277Z,15.94
2022-09-22T22:24:49.914Z,15.91
2022-09-22T22:27:16.818Z,15.89
2022-09-22T22:29:43.422Z,15.89
2022-09-22T22:32:10.590Z,15.87
2022-09-22T22:34:38.861Z,15.88
2022-09-22T22:37:09.656Z,15.87
2022-09-22T22:39:36.448Z,15.86
2022-09-22T22:42:03.050Z,15.85
2022-09-22T22:44:30.902Z,15.84
2022-09-22T22:46:57.386Z,15.84
2022-09-22T22:49:24.130Z,15.84
2022-09-22T22:51:52.286Z,15.84
2022-09-22T22:54:19.861Z,15.83
2022-09-22T22:56:50.803Z,15.83
2022-09-22T22:59:18.112Z,15.80
2022-09-22T23:01:44.685Z,15.78
2022-09-22T23:04:11.770Z,15.75
2022-09-22T23:06:41.706Z,15.74
2022-09-22T23:09:11.956Z,15.70
2022-09-22T23:11:40.178Z,15.67
2022-09-22T23:14:12.459Z,15.63
2022-09-22T23:16:44.277Z,15.60
2022-09-22T23:19:18.986Z,15.56
2022-09-22T23:21:46.441Z,15.53
2022-09-22T23:24:16.772Z,15.51
2022-09-22T23:26:44.788Z,15.49
2022-09-22T23:29:11.650Z,15.47
2022-09-22T23:31:38.210Z,15.47
2022-09-22T23:34:08.774Z,15.45
2022-09-22T23:36:35.354Z,15.42
2022-09-22T23:39:03.746Z,15.41
2022-09-22T23:41:34.927Z,15.38
2022-09-22T23:44:06.709Z,15.37
2022-09-22T23:46:34.063Z,15.35
2022-09-22T23:49:00.643Z,15.32
2022-09-22T23:51:27.733Z,15.30
2022-09-22T23:53:54.398Z,15.29
2022-09-22T23:56:20.889Z,15.25
2022-09-22T23:58:47.581Z,15.22
